To NAV CANADA Home Page Login to a new session Search on AWWS site Feedback and Comments Disclaimer Vers la page française équivalente Tips FAQ What's new on the site To the Forecasts and Observations / NOTAM section To "File a Flight Plan" website Publications and other links Update of the User's profile FIC Telephone Numbers My Weather Data Folder Route Weather Data Regional Weather Data Local Weather Data To the Forecasts and Observations / NOTAM section
Request Generated 03/31/2015 at 06:38:09 UTC . Weather information available at that time is displayed.

METAR/TAF

MONT-JOLI/QC    

METAR CYYY 310600Z 07002KT 2 1/2SM -SN FEW004 OVC012 M01/M01 A2947
RMK SF2SC6 SLP981=
METAR CYYY 310500Z 00000KT 1 1/2SM -SN SCT004 OVC010 M00/M01 A2947
RMK SF4SC4 SLP983=
METAR CYYY 310400Z 36002KT 1 1/2SM -SN OVC010 M00/M01 A2948 RMK SC8
SLP987=

TAF AMD CYYY 310613Z 3106/3114 VRB03KT 11/2SM -SN BKN004 OVC010 TEMPO
3106/3112 6SM -SN SCT004 OVC010
BECMG 3107/3109 25010KT
FM311200 30012G22KT 11/2SM -SHSN OVC015 TEMPO 3112/3114 3SM -SN
OVC025
RMK NXT FCST BY 310800Z=
Your time UTC time
Weather data provided by Environment Canada and NAV CANADA